Terminal Aerodrome Forecast
Issued by NWS

Home | Current Version | Previous Version | Text Only | Print | Product List | Glossary On
Versions: 1 2 3 4 5 6 7 8 9 10 11 12 13 14 15 16 17
124
FTAK31 PAJN 251133
TAFAYA
TAF
PAYA 251133Z 2512/2612 07005KT P6SM FEW035 SCT200
     FM260800 10006KT 4SM -SHSN BR SCT008 OVC020
      AMD LTD TO CLD VIS AND WIND 2601/2609=

USA.gov is the U.S. government's official web portal to all federal, state and local government web resources and services.